メインページ
METAR-TAF:

METAR-TAF

空港 :

マリスカル・スクレ国際空港

キト, エクアドル

緯度: 0-06-48S, 経度: 78-21-31W, 海抜: 2400m

現時点の気象観測

当レポートは25分前の21:00(UTC)に作成
北東の風 8kt
気温 21°C
湿度 35%
気圧 1023 hPa
視程10km以上
高度4000ftの千切れ雲あり
高度10000ftの雲は散在している

METAR: SEQM 162100Z 05008KT 9999 BKN040 SCT100 21/05 Q1023 NOSIG RMK A3023

時間: 16:25 (21:25 UTC)

予報

当レポートは11時間55分前の09:30(UTC)に作成
予報は16日の 12時(UTC)から 17日の 12時(UTC)まで有効
変向風 3kt
視程10km以上
高度3000ftの雲はほとんどない
16日の 17時(UTC)から 16日の 19時(UTC)まで徐々に
の風 10kt
16日の 22時(UTC)から 16日の 24時(UTC)まで徐々に
北東の風 5kt

TAF: SEQM 160930Z 1612/1712 VRB03KT 9999 FEW030 BECMG 1617/1619 35010KT BECMG 1622/1624 04005KT TX24/1619Z TN10/1711Z

4,000以上の空港の気象観測と天気予報(METAR報とTAF報)

利用可能な観測所は地図上に黄色い丸と赤い丸で示す。

丸の上にカーソルを重ねると観測所名を参照できる。

次にクリックすると気象観測と天気予報を参照できる。

マップの切り替え:黒色「×」印の緑ボタンをクリックして拡大、「-」印の緑ボタンをクリックして縮小、緑色の三角印をクリックして隣りの地図に切り替え


METAR-TAF: